createdAt,value
2017-08-30T00:01:32.544Z,15.47
2017-08-30T00:06:51.294Z,15.43
2017-08-30T00:12:07.758Z,15.20
2017-08-30T00:17:16.806Z,15.57
2017-08-30T00:22:18.431Z,14.27
2017-08-30T00:27:20.434Z,14.73
2017-08-30T00:32:22.653Z,15.30
2017-08-30T00:37:24.393Z,16.07
2017-08-30T00:42:26.026Z,16.33
2017-08-30T00:47:27.720Z,17.10
2017-08-30T00:52:29.593Z,16.57
2017-08-30T00:57:31.493Z,17.27
2017-08-30T01:02:34.682Z,17.60
2017-08-30T01:07:36.664Z,15.90
2017-08-30T01:12:38.302Z,15.77
2017-08-30T01:17:40.028Z,15.63
2017-08-30T01:22:42.361Z,15.60
2017-08-30T01:27:44.175Z,15.67
2017-08-30T01:32:45.841Z,16.63
2017-08-30T01:37:47.725Z,17.87
2017-08-30T01:42:49.417Z,17.57
2017-08-30T01:47:51.844Z,16.70
2017-08-30T01:52:54.265Z,15.47
2017-08-30T01:57:56.444Z,17.93
2017-08-30T02:02:58.732Z,16.23
2017-08-30T02:08:00.543Z,14.93
2017-08-30T02:13:02.193Z,14.03
2017-08-30T02:18:03.960Z,13.83
2017-08-30T02:23:05.766Z,14.23
2017-08-30T02:28:07.950Z,15.57
2017-08-30T02:33:11.952Z,13.70
2017-08-30T02:38:28.460Z,14.00
2017-08-30T02:43:44.916Z,13.37
2017-08-30T02:49:01.597Z,14.40
2017-08-30T02:54:17.923Z,13.80
2017-08-30T02:59:19.735Z,13.80
2017-08-30T03:04:40.159Z,15.60
2017-08-30T03:09:41.921Z,14.73
2017-08-30T03:14:58.532Z,14.40
2017-08-30T03:20:01.240Z,13.80
2017-08-30T03:25:02.913Z,14.00
2017-08-30T03:30:04.790Z,14.37
2017-08-30T03:35:06.516Z,13.70
2017-08-30T03:40:08.244Z,13.00
2017-08-30T03:45:09.988Z,14.00
2017-08-30T03:50:11.661Z,13.40
2017-08-30T03:55:13.357Z,14.10
2017-08-30T04:00:16.741Z,11.83
2017-08-30T04:05:18.422Z,12.60
2017-08-30T04:10:20.222Z,12.87
2017-08-30T04:15:21.899Z,12.53
2017-08-30T04:20:23.700Z,12.70
2017-08-30T04:25:26.029Z,12.33
2017-08-30T04:30:28.009Z,12.70
2017-08-30T04:35:30.221Z,13.40
2017-08-30T04:40:31.892Z,12.03
2017-08-30T04:45:33.565Z,11.90
2017-08-30T04:50:35.237Z,11.70
2017-08-30T04:55:36.911Z,11.67
2017-08-30T05:00:38.789Z,12.40
2017-08-30T05:05:40.438Z,12.13
2017-08-30T05:10:42.007Z,12.60
2017-08-30T05:15:43.582Z,13.37
2017-08-30T05:20:45.353Z,13.13
2017-08-30T05:25:47.126Z,14.37
2017-08-30T05:30:48.806Z,13.00
2017-08-30T05:35:50.476Z,12.07
2017-08-30T05:40:52.170Z,11.57
2017-08-30T05:45:53.843Z,11.70
2017-08-30T05:50:55.485Z,12.47
2017-08-30T05:55:57.166Z,12.93
2017-08-30T06:00:58.859Z,13.23
2017-08-30T06:06:01.208Z,13.77
2017-08-30T06:11:03.469Z,14.20
2017-08-30T06:16:05.208Z,15.17
2017-08-30T06:21:06.858Z,16.10
2017-08-30T06:26:09.170Z,16.17
2017-08-30T06:31:10.841Z,16.30
2017-08-30T06:36:12.493Z,16.00
2017-08-30T06:41:14.262Z,15.90
2017-08-30T06:46:16.312Z,17.90
2017-08-30T06:51:19.047Z,17.80
2017-08-30T06:56:21.479Z,20.03
2017-08-30T07:01:23.232Z,19.23
2017-08-30T07:06:25.816Z,18.20
2017-08-30T07:11:27.602Z,18.23
2017-08-30T07:16:29.835Z,19.00
2017-08-30T07:21:31.898Z,18.20
2017-08-30T07:26:34.036Z,18.07
2017-08-30T07:31:35.805Z,19.37
2017-08-30T07:36:37.378Z,19.27
2017-08-30T07:41:38.941Z,18.77
2017-08-30T07:46:40.517Z,19.63
2017-08-30T07:51:42.074Z,17.80
2017-08-30T07:56:43.646Z,20.63
2017-08-30T08:01:45.233Z,20.93
2017-08-30T08:06:46.813Z,21.07
2017-08-30T08:11:48.391Z,21.20
2017-08-30T08:16:49.953Z,20.20
2017-08-30T08:21:51.530Z,18.97
2017-08-30T08:26:53.103Z,17.33
2017-08-30T08:31:54.660Z,18.70
2017-08-30T08:36:56.250Z,16.13
2017-08-30T08:41:57.834Z,17.53
2017-08-30T08:46:59.417Z,13.90
2017-08-30T08:52:00.995Z,12.60
2017-08-30T08:57:02.593Z,12.50
2017-08-30T09:02:04.162Z,10.10
2017-08-30T09:07:05.729Z,9.30
2017-08-30T09:12:07.302Z,9.77
2017-08-30T09:17:08.884Z,9.43
2017-08-30T09:22:10.448Z,9.80
2017-08-30T09:27:12.022Z,10.97
2017-08-30T09:32:13.616Z,10.63
2017-08-30T09:37:15.205Z,9.50
2017-08-30T09:42:16.773Z,10.80
2017-08-30T09:47:18.343Z,10.10
2017-08-30T09:52:19.913Z,10.20
2017-08-30T09:57:21.489Z,10.70
2017-08-30T10:02:23.081Z,10.50
2017-08-30T10:07:24.648Z,10.87
2017-08-30T10:12:26.218Z,10.90
2017-08-30T10:17:27.785Z,10.83
2017-08-30T10:22:29.357Z,11.07
2017-08-30T10:27:30.946Z,11.07
2017-08-30T10:32:32.465Z,10.77
2017-08-30T10:37:34.054Z,11.23
2017-08-30T10:42:35.620Z,9.80
2017-08-30T10:47:38.101Z,10.60
2017-08-30T10:52:39.721Z,11.00
2017-08-30T10:57:41.292Z,10.00
2017-08-30T11:02:42.861Z,11.40
2017-08-30T11:07:44.445Z,10.43
2017-08-30T11:12:46.028Z,10.63
2017-08-30T11:17:47.604Z,10.80
2017-08-30T11:22:49.218Z,10.70
2017-08-30T11:27:50.775Z,11.53
2017-08-30T11:32:52.344Z,10.67
2017-08-30T11:37:53.922Z,11.33
2017-08-30T11:42:55.482Z,11.47
2017-08-30T11:47:57.048Z,11.67
2017-08-30T11:52:58.633Z,11.97
2017-08-30T11:58:00.209Z,10.93
2017-08-30T12:03:01.789Z,11.30
2017-08-30T12:08:03.353Z,11.77
2017-08-30T12:13:04.916Z,11.20
2017-08-30T12:18:06.485Z,10.50
2017-08-30T12:23:08.053Z,11.30
2017-08-30T12:28:09.637Z,10.57
2017-08-30T12:33:11.204Z,10.80
2017-08-30T12:38:18.826Z,10.67
2017-08-30T12:43:20.409Z,10.60
2017-08-30T12:48:21.977Z,11.20
2017-08-30T12:53:23.548Z,10.70
2017-08-30T12:58:25.113Z,10.80
2017-08-30T13:03:26.719Z,12.33
2017-08-30T13:08:28.289Z,7.27
2017-08-30T13:13:29.813Z,6.80
2017-08-30T13:18:31.385Z,6.90
2017-08-30T13:23:32.944Z,6.67
2017-08-30T13:28:34.509Z,6.10
2017-08-30T13:33:36.081Z,6.70
2017-08-30T13:38:37.658Z,6.10
2017-08-30T13:43:39.917Z,6.40
2017-08-30T13:48:41.491Z,5.90
2017-08-30T13:53:43.056Z,5.57
2017-08-30T13:58:44.627Z,6.37
2017-08-30T14:03:46.193Z,6.53
2017-08-30T14:08:47.767Z,6.70
2017-08-30T14:13:49.327Z,6.43
2017-08-30T14:18:50.904Z,6.40
2017-08-30T14:23:52.473Z,5.43
2017-08-30T14:28:54.069Z,6.10
2017-08-30T14:33:55.672Z,5.90
2017-08-30T14:38:57.273Z,5.40
2017-08-30T14:43:58.841Z,5.77
2017-08-30T14:49:00.415Z,5.57
2017-08-30T14:54:02.027Z,5.00
2017-08-30T14:59:03.670Z,5.50
2017-08-30T15:04:05.271Z,5.47
2017-08-30T15:09:06.869Z,5.27
2017-08-30T15:14:08.460Z,6.00
2017-08-30T15:19:10.044Z,5.40
2017-08-30T15:24:11.644Z,5.40
2017-08-30T15:29:13.221Z,6.10
2017-08-30T15:34:14.801Z,6.03
2017-08-30T15:39:16.421Z,5.63
2017-08-30T15:44:18.074Z,5.60
2017-08-30T15:49:19.670Z,6.03
2017-08-30T15:54:22.172Z,5.83
2017-08-30T15:59:23.858Z,5.63
2017-08-30T16:04:26.146Z,4.93
2017-08-30T16:09:27.893Z,5.40
2017-08-30T16:14:29.473Z,5.40
2017-08-30T16:19:31.266Z,5.50
2017-08-30T16:24:33.018Z,4.97
2017-08-30T16:29:34.714Z,5.40
2017-08-30T16:34:36.489Z,5.43
2017-08-30T16:39:38.161Z,5.40
2017-08-30T16:44:39.937Z,5.87
2017-08-30T16:49:41.610Z,5.33
2017-08-30T16:54:43.285Z,5.43
2017-08-30T16:59:44.929Z,5.77
2017-08-30T17:04:47.655Z,5.80
2017-08-30T17:09:50.219Z,5.50
2017-08-30T17:14:51.818Z,5.60
2017-08-30T17:19:53.470Z,5.73
2017-08-30T17:24:55.016Z,5.20
2017-08-30T17:29:57.146Z,5.93
2017-08-30T17:34:58.816Z,5.40
2017-08-30T17:40:00.469Z,6.07
2017-08-30T17:45:02.163Z,6.60
2017-08-30T17:50:05.737Z,6.20
2017-08-30T17:55:07.352Z,7.13
2017-08-30T18:00:09.201Z,6.80
2017-08-30T18:05:10.981Z,6.90
2017-08-30T18:10:13.705Z,6.43
2017-08-30T18:15:16.480Z,6.70
2017-08-30T18:20:19.746Z,6.03
2017-08-30T18:25:22.068Z,6.73
2017-08-30T18:30:25.167Z,7.07
2017-08-30T18:35:28.206Z,6.70
2017-08-30T18:40:30.602Z,6.40
2017-08-30T18:45:33.717Z,6.17
2017-08-30T18:50:37.017Z,6.60
2017-08-30T18:55:39.410Z,7.20
2017-08-30T19:00:42.292Z,6.60
2017-08-30T19:05:45.203Z,6.90
2017-08-30T19:10:47.396Z,7.27
2017-08-30T19:15:49.864Z,6.97
2017-08-30T19:20:54.342Z,6.67
2017-08-30T19:25:56.903Z,6.70
2017-08-30T19:30:59.414Z,6.70
2017-08-30T19:36:02.308Z,7.37
2017-08-30T19:41:06.548Z,6.40
2017-08-30T19:46:09.528Z,7.30
2017-08-30T19:51:12.406Z,10.30
2017-08-30T19:56:14.099Z,6.67
2017-08-30T20:01:15.771Z,6.80
2017-08-30T20:06:18.663Z,6.47
2017-08-30T20:11:22.214Z,5.50
2017-08-30T20:16:24.627Z,5.90
2017-08-30T20:21:27.911Z,5.20
2017-08-30T20:26:32.535Z,5.77
2017-08-30T20:31:34.334Z,5.60
2017-08-30T20:36:36.087Z,5.50
2017-08-30T20:41:38.360Z,4.00
2017-08-30T20:46:41.093Z,4.10
2017-08-30T20:51:42.765Z,3.67
2017-08-30T20:56:44.438Z,3.67
2017-08-30T21:01:47.144Z,4.07
2017-08-30T21:06:49.727Z,3.60
2017-08-30T21:11:51.446Z,3.43
2017-08-30T21:16:53.122Z,3.53
2017-08-30T21:21:54.850Z,3.23
2017-08-30T21:26:56.494Z,3.70
2017-08-30T21:31:59.221Z,3.27
2017-08-30T21:37:00.877Z,3.77
2017-08-30T21:42:02.566Z,4.00
2017-08-30T21:47:04.340Z,3.63
2017-08-30T21:52:05.990Z,3.00
2017-08-30T21:57:08.654Z,3.97
2017-08-30T22:02:10.357Z,3.43
2017-08-30T22:07:13.081Z,3.40
2017-08-30T22:12:14.752Z,3.47
2017-08-30T22:17:17.452Z,3.73
2017-08-30T22:22:19.125Z,3.50
2017-08-30T22:27:20.797Z,3.90
2017-08-30T22:32:22.468Z,4.10
2017-08-30T22:37:24.243Z,4.03
2017-08-30T22:42:25.889Z,3.80
2017-08-30T22:47:27.690Z,4.60
2017-08-30T22:52:30.388Z,4.90
2017-08-30T22:57:32.039Z,4.70
2017-08-30T23:02:33.735Z,4.33
2017-08-30T23:07:36.610Z,4.10
2017-08-30T23:12:38.283Z,4.23
2017-08-30T23:17:40.600Z,4.20
2017-08-30T23:22:42.268Z,3.87
2017-08-30T23:27:44.937Z,4.57
2017-08-30T23:32:46.614Z,3.77
2017-08-30T23:37:49.333Z,3.80
2017-08-30T23:42:50.981Z,3.50
2017-08-30T23:47:53.826Z,3.20
2017-08-30T23:52:56.401Z,3.77
2017-08-30T23:57:58.010Z,3.67
